sensor_id;sensor_type;location;lat;lon;timestamp;temperature;humidity
36790;DHT22;22740;52.182;8.780;2023-05-10T00:03:46;15.60;99.90
36790;DHT22;22740;52.182;8.780;2023-05-10T00:09:48;15.40;99.90
36790;DHT22;22740;52.182;8.780;2023-05-10T00:15:50;15.50;99.90
36790;DHT22;22740;52.182;8.780;2023-05-10T00:21:52;15.30;99.90
36790;DHT22;22740;52.182;8.780;2023-05-10T00:27:54;15.30;99.90
36790;DHT22;22740;52.182;8.780;2023-05-10T00:33:56;15.30;99.90
36790;DHT22;22740;52.182;8.780;2023-05-10T00:39:58;15.30;99.90
36790;DHT22;22740;52.182;8.780;2023-05-10T00:46:00;15.40;99.90
36790;DHT22;22740;52.182;8.780;2023-05-10T00:52:02;15.40;99.90
36790;DHT22;22740;52.182;8.780;2023-05-10T00:58:04;15.50;99.90
36790;DHT22;22740;52.182;8.780;2023-05-10T01:04:07;15.50;99.90
36790;DHT22;22740;52.182;8.780;2023-05-10T01:10:10;15.50;99.90
36790;DHT22;22740;52.182;8.780;2023-05-10T01:16:13;15.50;99.90
36790;DHT22;22740;52.182;8.780;2023-05-10T01:28:58;15.50;99.90
36790;DHT22;22740;52.182;8.780;2023-05-10T01:35:22;15.40;99.90
36790;DHT22;22740;52.182;8.780;2023-05-10T01:41:39;15.20;99.90
36790;DHT22;22740;52.182;8.780;2023-05-10T01:47:54;15.20;99.90
36790;DHT22;22740;52.182;8.780;2023-05-10T01:54:03;15.20;99.90
36790;DHT22;22740;52.182;8.780;2023-05-10T02:00:08;15.30;99.90
36790;DHT22;22740;52.182;8.780;2023-05-10T02:06:11;15.10;99.90
36790;DHT22;22740;52.182;8.780;2023-05-10T02:12:16;14.90;99.90
36790;DHT22;22740;52.182;8.780;2023-05-10T02:18:19;14.80;99.90
36790;DHT22;22740;52.182;8.780;2023-05-10T02:24:21;14.90;99.90
36790;DHT22;22740;52.182;8.780;2023-05-10T02:30:26;15.00;99.90
36790;DHT22;22740;52.182;8.780;2023-05-10T02:36:29;15.10;99.90
36790;DHT22;22740;52.182;8.780;2023-05-10T02:42:35;15.10;99.90
36790;DHT22;22740;52.182;8.780;2023-05-10T02:48:37;14.70;99.90
36790;DHT22;22740;52.182;8.780;2023-05-10T02:54:46;14.60;99.90
36790;DHT22;22740;52.182;8.780;2023-05-10T03:00:53;14.40;99.90
36790;DHT22;22740;52.182;8.780;2023-05-10T03:06:55;14.20;99.90
36790;DHT22;22740;52.182;8.780;2023-05-10T03:19:30;14.10;99.90
36790;DHT22;22740;52.182;8.780;2023-05-10T03:25:34;14.00;99.90
36790;DHT22;22740;52.182;8.780;2023-05-10T03:31:38;13.90;99.90
36790;DHT22;22740;52.182;8.780;2023-05-10T03:37:41;14.00;99.90
36790;DHT22;22740;52.182;8.780;2023-05-10T03:43:44;13.90;99.90
36790;DHT22;22740;52.182;8.780;2023-05-10T03:49:46;13.80;99.90
36790;DHT22;22740;52.182;8.780;2023-05-10T03:55:49;13.70;99.90
36790;DHT22;22740;52.182;8.780;2023-05-10T04:01:51;13.80;99.90
36790;DHT22;22740;52.182;8.780;2023-05-10T04:07:53;13.70;99.90
36790;DHT22;22740;52.182;8.780;2023-05-10T04:13:55;13.80;99.90
36790;DHT22;22740;52.182;8.780;2023-05-10T04:19:57;13.80;99.90
36790;DHT22;22740;52.182;8.780;2023-05-10T04:26:00;13.70;99.90
36790;DHT22;22740;52.182;8.780;2023-05-10T04:32:03;13.70;99.90
36790;DHT22;22740;52.182;8.780;2023-05-10T04:38:05;13.60;99.90
36790;DHT22;22740;52.182;8.780;2023-05-10T04:44:07;13.60;99.90
36790;DHT22;22740;52.182;8.780;2023-05-10T04:50:09;13.70;99.90
36790;DHT22;22740;52.182;8.780;2023-05-10T04:56:11;13.70;99.90
36790;DHT22;22740;52.182;8.780;2023-05-10T05:02:13;13.70;99.90
36790;DHT22;22740;52.182;8.780;2023-05-10T05:08:15;13.40;99.90
36790;DHT22;22740;52.182;8.780;2023-05-10T05:14:17;13.00;99.90
36790;DHT22;22740;52.182;8.780;2023-05-10T05:20:19;12.80;99.90
36790;DHT22;22740;52.182;8.780;2023-05-10T05:26:22;12.80;99.90
36790;DHT22;22740;52.182;8.780;2023-05-10T05:32:24;12.80;99.90
36790;DHT22;22740;52.182;8.780;2023-05-10T05:38:26;12.70;99.90
36790;DHT22;22740;52.182;8.780;2023-05-10T05:44:28;12.60;99.90
36790;DHT22;22740;52.182;8.780;2023-05-10T05:50:41;12.60;99.90
36790;DHT22;22740;52.182;8.780;2023-05-10T05:56:49;12.60;99.90
36790;DHT22;22740;52.182;8.780;2023-05-10T06:02:58;12.60;99.90
36790;DHT22;22740;52.182;8.780;2023-05-10T06:09:03;12.60;99.90
36790;DHT22;22740;52.182;8.780;2023-05-10T06:15:08;12.60;99.90
36790;DHT22;22740;52.182;8.780;2023-05-10T06:21:11;12.50;99.90
36790;DHT22;22740;52.182;8.780;2023-05-10T06:27:13;12.40;99.90
36790;DHT22;22740;52.182;8.780;2023-05-10T06:33:15;12.60;99.90
36790;DHT22;22740;52.182;8.780;2023-05-10T06:39:17;12.60;99.90
36790;DHT22;22740;52.182;8.780;2023-05-10T06:45:19;12.40;99.90
36790;DHT22;22740;52.182;8.780;2023-05-10T06:51:22;12.40;99.90
36790;DHT22;22740;52.182;8.780;2023-05-10T06:57:24;12.40;99.90
36790;DHT22;22740;52.182;8.780;2023-05-10T07:03:32;12.50;99.90
36790;DHT22;22740;52.182;8.780;2023-05-10T07:09:35;12.60;99.90
36790;DHT22;22740;52.182;8.780;2023-05-10T07:15:37;12.70;99.90
36790;DHT22;22740;52.182;8.780;2023-05-10T07:21:40;12.70;99.90
36790;DHT22;22740;52.182;8.780;2023-05-10T07:27:44;12.60;99.90
36790;DHT22;22740;52.182;8.780;2023-05-10T07:33:48;12.70;99.90
36790;DHT22;22740;52.182;8.780;2023-05-10T07:39:54;12.70;99.90
36790;DHT22;22740;52.182;8.780;2023-05-10T07:46:05;13.00;99.90
36790;DHT22;22740;52.182;8.780;2023-05-10T07:52:07;13.20;99.90
36790;DHT22;22740;52.182;8.780;2023-05-10T07:58:08;13.20;99.90
36790;DHT22;22740;52.182;8.780;2023-05-10T08:04:11;13.20;99.90
36790;DHT22;22740;52.182;8.780;2023-05-10T08:10:14;13.40;99.90
36790;DHT22;22740;52.182;8.780;2023-05-10T08:16:17;13.60;99.90
36790;DHT22;22740;52.182;8.780;2023-05-10T08:22:19;13.70;99.90
36790;DHT22;22740;52.182;8.780;2023-05-10T08:28:20;13.60;99.90
36790;DHT22;22740;52.182;8.780;2023-05-10T08:34:22;13.80;99.90
36790;DHT22;22740;52.182;8.780;2023-05-10T08:40:26;14.00;99.90
36790;DHT22;22740;52.182;8.780;2023-05-10T08:46:28;13.90;99.90
36790;DHT22;22740;52.182;8.780;2023-05-10T08:52:33;13.80;99.90
36790;DHT22;22740;52.182;8.780;2023-05-10T08:58:38;13.80;99.90
36790;DHT22;22740;52.182;8.780;2023-05-10T09:04:40;14.20;99.90
36790;DHT22;22740;52.182;8.780;2023-05-10T09:10:44;14.60;99.90
36790;DHT22;22740;52.182;8.780;2023-05-10T09:16:48;14.80;99.90
36790;DHT22;22740;52.182;8.780;2023-05-10T09:22:51;14.50;99.90
36790;DHT22;22740;52.182;8.780;2023-05-10T09:28:54;14.60;99.90
36790;DHT22;22740;52.182;8.780;2023-05-10T09:34:57;14.70;99.90
36790;DHT22;22740;52.182;8.780;2023-05-10T09:40:59;14.60;99.90
36790;DHT22;22740;52.182;8.780;2023-05-10T09:47:04;14.80;99.90
36790;DHT22;22740;52.182;8.780;2023-05-10T09:53:06;15.10;99.90
36790;DHT22;22740;52.182;8.780;2023-05-10T09:59:11;15.90;99.90
36790;DHT22;22740;52.182;8.780;2023-05-10T10:05:13;16.10;99.90
36790;DHT22;22740;52.182;8.780;2023-05-10T10:11:17;16.70;99.90
36790;DHT22;22740;52.182;8.780;2023-05-10T10:17:19;17.50;99.90
36790;DHT22;22740;52.182;8.780;2023-05-10T10:23:21;17.60;99.90
36790;DHT22;22740;52.182;8.780;2023-05-10T10:35:36;17.10;99.90
36790;DHT22;22740;52.182;8.780;2023-05-10T10:41:50;17.00;99.90
36790;DHT22;22740;52.182;8.780;2023-05-10T10:48:20;16.70;99.90
36790;DHT22;22740;52.182;8.780;2023-05-10T10:54:29;16.10;99.90
36790;DHT22;22740;52.182;8.780;2023-05-10T11:00:33;15.80;99.90
36790;DHT22;22740;52.182;8.780;2023-05-10T11:06:35;15.80;99.90
36790;DHT22;22740;52.182;8.780;2023-05-10T11:13:09;16.00;99.90
36790;DHT22;22740;52.182;8.780;2023-05-10T11:19:13;16.90;99.90
36790;DHT22;22740;52.182;8.780;2023-05-10T11:25:15;17.40;99.90
36790;DHT22;22740;52.182;8.780;2023-05-10T11:31:18;17.60;99.90
36790;DHT22;22740;52.182;8.780;2023-05-10T11:37:20;18.00;99.90
36790;DHT22;22740;52.182;8.780;2023-05-10T11:43:24;17.70;99.90
36790;DHT22;22740;52.182;8.780;2023-05-10T11:49:29;18.10;99.90
36790;DHT22;22740;52.182;8.780;2023-05-10T11:55:33;17.80;99.90
36790;DHT22;22740;52.182;8.780;2023-05-10T12:01:35;17.90;99.90
36790;DHT22;22740;52.182;8.780;2023-05-10T12:07:37;17.80;99.90
36790;DHT22;22740;52.182;8.780;2023-05-10T12:13:40;18.50;99.90
36790;DHT22;22740;52.182;8.780;2023-05-10T12:19:42;17.60;99.90
36790;DHT22;22740;52.182;8.780;2023-05-10T12:25:45;17.60;99.90
36790;DHT22;22740;52.182;8.780;2023-05-10T12:31:58;17.50;99.90
36790;DHT22;22740;52.182;8.780;2023-05-10T12:38:00;18.10;99.90
36790;DHT22;22740;52.182;8.780;2023-05-10T12:44:02;18.60;99.90
36790;DHT22;22740;52.182;8.780;2023-05-10T12:50:05;19.00;99.90
36790;DHT22;22740;52.182;8.780;2023-05-10T12:56:07;18.60;99.90
36790;DHT22;22740;52.182;8.780;2023-05-10T13:02:09;18.60;99.90
36790;DHT22;22740;52.182;8.780;2023-05-10T13:08:11;18.40;99.90
36790;DHT22;22740;52.182;8.780;2023-05-10T13:14:13;17.90;99.90
36790;DHT22;22740;52.182;8.780;2023-05-10T13:20:17;17.80;99.90
36790;DHT22;22740;52.182;8.780;2023-05-10T13:26:19;17.70;99.90
36790;DHT22;22740;52.182;8.780;2023-05-10T13:32:21;17.60;99.90
36790;DHT22;22740;52.182;8.780;2023-05-10T13:38:23;17.90;99.90
36790;DHT22;22740;52.182;8.780;2023-05-10T13:44:25;17.80;99.90
36790;DHT22;22740;52.182;8.780;2023-05-10T13:50:27;17.70;99.90
36790;DHT22;22740;52.182;8.780;2023-05-10T13:56:29;17.90;99.90
36790;DHT22;22740;52.182;8.780;2023-05-10T14:02:31;18.10;99.90
36790;DHT22;22740;52.182;8.780;2023-05-10T14:08:34;18.00;99.90
36790;DHT22;22740;52.182;8.780;2023-05-10T14:14:36;17.50;99.90
36790;DHT22;22740;52.182;8.780;2023-05-10T14:20:38;17.30;99.90
36790;DHT22;22740;52.182;8.780;2023-05-10T14:26:40;16.90;99.90
36790;DHT22;22740;52.182;8.780;2023-05-10T14:32:42;16.20;99.90
36790;DHT22;22740;52.182;8.780;2023-05-10T14:38:44;15.70;99.90
36790;DHT22;22740;52.182;8.780;2023-05-10T14:44:46;15.30;99.90
36790;DHT22;22740;52.182;8.780;2023-05-10T14:50:48;15.30;99.90
36790;DHT22;22740;52.182;8.780;2023-05-10T14:56:51;15.50;99.90
36790;DHT22;22740;52.182;8.780;2023-05-10T15:02:53;15.40;99.90
36790;DHT22;22740;52.182;8.780;2023-05-10T15:08:55;15.40;99.90
36790;DHT22;22740;52.182;8.780;2023-05-10T15:14:57;15.20;99.90
36790;DHT22;22740;52.182;8.780;2023-05-10T15:20:59;15.60;99.90
36790;DHT22;22740;52.182;8.780;2023-05-10T15:27:01;15.70;99.90
36790;DHT22;22740;52.182;8.780;2023-05-10T15:33:03;15.60;99.90
36790;DHT22;22740;52.182;8.780;2023-05-10T15:39:05;15.60;99.90
36790;DHT22;22740;52.182;8.780;2023-05-10T15:45:08;15.70;99.90
36790;DHT22;22740;52.182;8.780;2023-05-10T15:51:10;15.80;99.90
36790;DHT22;22740;52.182;8.780;2023-05-10T15:57:13;16.00;99.90
36790;DHT22;22740;52.182;8.780;2023-05-10T16:03:14;15.90;99.90
36790;DHT22;22740;52.182;8.780;2023-05-10T16:09:17;15.80;99.90
36790;DHT22;22740;52.182;8.780;2023-05-10T16:15:18;15.70;99.90
36790;DHT22;22740;52.182;8.780;2023-05-10T16:21:22;15.50;99.90
36790;DHT22;22740;52.182;8.780;2023-05-10T16:27:24;15.60;99.90
36790;DHT22;22740;52.182;8.780;2023-05-10T16:33:29;15.70;99.90
36790;DHT22;22740;52.182;8.780;2023-05-10T16:39:31;15.70;99.90
36790;DHT22;22740;52.182;8.780;2023-05-10T16:45:33;15.70;99.90
36790;DHT22;22740;52.182;8.780;2023-05-10T16:51:35;15.70;99.90
36790;DHT22;22740;52.182;8.780;2023-05-10T16:57:37;15.40;99.90
36790;DHT22;22740;52.182;8.780;2023-05-10T17:03:39;15.20;99.90
36790;DHT22;22740;52.182;8.780;2023-05-10T17:09:41;15.30;99.90
36790;DHT22;22740;52.182;8.780;2023-05-10T17:15:45;15.40;99.90
36790;DHT22;22740;52.182;8.780;2023-05-10T17:21:47;15.20;99.90
36790;DHT22;22740;52.182;8.780;2023-05-10T17:27:49;15.00;99.90
36790;DHT22;22740;52.182;8.780;2023-05-10T17:33:51;15.00;99.90
36790;DHT22;22740;52.182;8.780;2023-05-10T17:39:53;14.80;99.90
36790;DHT22;22740;52.182;8.780;2023-05-10T17:45:55;14.90;99.90
36790;DHT22;22740;52.182;8.780;2023-05-10T17:51:57;15.00;99.90
36790;DHT22;22740;52.182;8.780;2023-05-10T17:57:59;15.10;99.90
36790;DHT22;22740;52.182;8.780;2023-05-10T18:04:01;15.20;99.90
36790;DHT22;22740;52.182;8.780;2023-05-10T18:10:03;14.80;99.90
36790;DHT22;22740;52.182;8.780;2023-05-10T18:16:06;15.00;99.90
36790;DHT22;22740;52.182;8.780;2023-05-10T18:22:09;14.90;99.90
36790;DHT22;22740;52.182;8.780;2023-05-10T18:28:11;14.90;99.90
36790;DHT22;22740;52.182;8.780;2023-05-10T18:34:13;14.80;99.90
36790;DHT22;22740;52.182;8.780;2023-05-10T18:40:16;14.80;99.90
36790;DHT22;22740;52.182;8.780;2023-05-10T18:46:18;14.80;99.90
36790;DHT22;22740;52.182;8.780;2023-05-10T18:52:20;14.70;99.90
36790;DHT22;22740;52.182;8.780;2023-05-10T18:58:22;14.40;99.90
36790;DHT22;22740;52.182;8.780;2023-05-10T19:04:24;14.40;99.90
36790;DHT22;22740;52.182;8.780;2023-05-10T19:10:26;14.40;99.90
36790;DHT22;22740;52.182;8.780;2023-05-10T19:16:28;14.40;99.90
36790;DHT22;22740;52.182;8.780;2023-05-10T19:22:31;14.40;99.90
36790;DHT22;22740;52.182;8.780;2023-05-10T19:28:50;14.50;99.90
36790;DHT22;22740;52.182;8.780;2023-05-10T19:34:52;14.50;99.90
36790;DHT22;22740;52.182;8.780;2023-05-10T19:40:55;14.30;99.90
36790;DHT22;22740;52.182;8.780;2023-05-10T19:47:00;14.20;99.90
36790;DHT22;22740;52.182;8.780;2023-05-10T19:53:04;14.30;99.90
36790;DHT22;22740;52.182;8.780;2023-05-10T19:59:06;14.10;99.90
36790;DHT22;22740;52.182;8.780;2023-05-10T20:05:08;14.00;99.90
36790;DHT22;22740;52.182;8.780;2023-05-10T20:11:10;14.10;99.90
36790;DHT22;22740;52.182;8.780;2023-05-10T20:17:12;14.10;99.90
36790;DHT22;22740;52.182;8.780;2023-05-10T20:23:15;14.10;99.90
36790;DHT22;22740;52.182;8.780;2023-05-10T20:29:17;13.80;99.90
36790;DHT22;22740;52.182;8.780;2023-05-10T20:35:19;13.70;99.90
36790;DHT22;22740;52.182;8.780;2023-05-10T20:41:21;13.80;99.90
36790;DHT22;22740;52.182;8.780;2023-05-10T20:47:23;13.70;99.90
36790;DHT22;22740;52.182;8.780;2023-05-10T20:53:25;13.70;99.90
36790;DHT22;22740;52.182;8.780;2023-05-10T20:59:27;13.80;99.90
36790;DHT22;22740;52.182;8.780;2023-05-10T21:05:29;13.70;99.90
36790;DHT22;22740;52.182;8.780;2023-05-10T21:11:33;13.60;99.90
36790;DHT22;22740;52.182;8.780;2023-05-10T21:17:36;13.50;99.90
36790;DHT22;22740;52.182;8.780;2023-05-10T21:23:38;13.60;99.90
36790;DHT22;22740;52.182;8.780;2023-05-10T21:29:40;13.70;99.90
36790;DHT22;22740;52.182;8.780;2023-05-10T21:35:42;13.70;99.90
36790;DHT22;22740;52.182;8.780;2023-05-10T21:41:44;13.60;99.90
36790;DHT22;22740;52.182;8.780;2023-05-10T21:47:46;13.60;99.90
36790;DHT22;22740;52.182;8.780;2023-05-10T21:53:48;13.70;99.90
36790;DHT22;22740;52.182;8.780;2023-05-10T21:59:50;13.70;99.90
36790;DHT22;22740;52.182;8.780;2023-05-10T22:05:52;13.70;99.90
36790;DHT22;22740;52.182;8.780;2023-05-10T22:11:54;13.70;99.90
36790;DHT22;22740;52.182;8.780;2023-05-10T22:17:56;13.60;99.90
36790;DHT22;22740;52.182;8.780;2023-05-10T22:23:58;13.60;99.90
36790;DHT22;22740;52.182;8.780;2023-05-10T22:30:00;13.50;99.90
36790;DHT22;22740;52.182;8.780;2023-05-10T22:36:02;13.60;99.90
36790;DHT22;22740;52.182;8.780;2023-05-10T22:42:04;13.70;99.90
36790;DHT22;22740;52.182;8.780;2023-05-10T22:48:07;13.80;99.90
36790;DHT22;22740;52.182;8.780;2023-05-10T22:54:10;13.80;99.90
36790;DHT22;22740;52.182;8.780;2023-05-10T23:00:12;13.80;99.90
36790;DHT22;22740;52.182;8.780;2023-05-10T23:06:14;13.90;99.90
36790;DHT22;22740;52.182;8.780;2023-05-10T23:12:16;13.80;99.90
36790;DHT22;22740;52.182;8.780;2023-05-10T23:18:18;13.80;99.90
36790;DHT22;22740;52.182;8.780;2023-05-10T23:24:20;13.80;99.90
36790;DHT22;22740;52.182;8.780;2023-05-10T23:30:22;13.70;99.90
36790;DHT22;22740;52.182;8.780;2023-05-10T23:36:24;13.80;99.90
36790;DHT22;22740;52.182;8.780;2023-05-10T23:42:26;13.80;99.90
36790;DHT22;22740;52.182;8.780;2023-05-10T23:48:27;13.80;99.90
36790;DHT22;22740;52.182;8.780;2023-05-10T23:54:29;13.70;99.90
